createdAt,value
2019-02-03T00:01:49.135Z,54065.82
2019-02-03T00:04:19.800Z,54014.77
2019-02-03T00:07:02.667Z,54012.85
2019-02-03T00:09:23.586Z,54018.62
2019-02-03T00:11:54.390Z,54009.00
2019-02-03T00:14:25.200Z,54012.85
2019-02-03T00:16:56.137Z,54035.96
2019-02-03T00:19:27.062Z,54009.96
2019-02-03T00:21:58.410Z,54004.18
2019-02-03T00:24:28.994Z,54010.92
2019-02-03T00:27:00.468Z,54035.96
2019-02-03T00:29:31.620Z,54039.81
2019-02-03T00:32:02.373Z,54012.85
2019-02-03T00:34:33.057Z,54018.62
2019-02-03T00:37:14.764Z,54016.70
2019-02-03T00:39:36.369Z,53994.55
2019-02-03T00:42:07.162Z,54020.55
2019-02-03T00:44:37.994Z,54031.14
2019-02-03T00:47:08.704Z,54007.07
2019-02-03T00:49:39.506Z,54004.18
2019-02-03T00:52:10.058Z,53993.59
2019-02-03T00:54:40.767Z,53997.44
2019-02-03T00:57:11.547Z,54014.77
2019-02-03T00:59:42.541Z,53982.03
2019-02-03T01:02:13.386Z,53987.81
2019-02-03T01:04:44.759Z,53983.96
2019-02-03T01:07:26.811Z,54008.03
2019-02-03T01:09:48.296Z,53995.51
2019-02-03T01:12:19.037Z,53997.44
2019-02-03T01:14:49.889Z,54002.25
2019-02-03T01:17:21.267Z,53989.73
2019-02-03T01:19:51.832Z,53995.51
2019-02-03T01:22:23.404Z,53986.84
2019-02-03T01:24:53.964Z,53982.03
2019-02-03T01:27:24.714Z,54015.74
2019-02-03T01:29:55.999Z,54003.21
2019-02-03T01:32:26.683Z,54011.88
2019-02-03T01:34:57.244Z,53965.66
2019-02-03T01:37:38.907Z,53983.96
2019-02-03T01:40:00.369Z,53991.66
2019-02-03T01:42:31.374Z,54006.11
2019-02-03T01:45:02.064Z,53984.92
2019-02-03T01:47:32.965Z,54009.00
2019-02-03T01:50:03.851Z,53993.59
2019-02-03T01:52:34.457Z,53993.59
2019-02-03T01:55:05.926Z,54013.81
2019-02-03T01:57:36.694Z,54001.29
2019-02-03T02:00:15.409Z,53978.18
2019-02-03T02:02:46.293Z,53958.92
2019-02-03T02:05:18.768Z,53950.25
2019-02-03T02:07:51.976Z,53986.84
2019-02-03T02:10:25.327Z,53986.84
2019-02-03T02:12:56.115Z,53927.14
2019-02-03T02:15:26.934Z,53957.95
2019-02-03T02:17:57.872Z,53972.40
2019-02-03T02:20:29.722Z,53970.47
2019-02-03T02:23:00.467Z,53951.21
2019-02-03T02:25:31.852Z,53953.14
2019-02-03T02:28:02.579Z,53912.69
2019-02-03T02:30:33.147Z,53967.58
2019-02-03T02:33:03.821Z,53912.69
2019-02-03T02:35:34.385Z,53946.39
2019-02-03T02:38:06.781Z,53945.43
2019-02-03T02:40:37.373Z,53927.14
2019-02-03T02:43:08.421Z,53907.87
2019-02-03T02:45:39.136Z,53890.54
2019-02-03T02:48:09.702Z,53926.17
2019-02-03T02:50:44.007Z,53926.17
2019-02-03T02:53:14.883Z,53920.39
2019-02-03T02:55:45.788Z,53924.25
2019-02-03T02:58:16.464Z,53970.47
2019-02-03T03:00:47.027Z,53902.10
2019-02-03T03:03:18.249Z,53942.54
2019-02-03T03:05:49.375Z,53934.84
2019-02-03T03:08:19.976Z,53927.14
2019-02-03T03:10:51.040Z,53925.21
2019-02-03T03:13:22.510Z,53939.66
2019-02-03T03:15:53.118Z,53900.17
2019-02-03T03:18:23.951Z,53923.29
2019-02-03T03:20:54.603Z,53905.95
2019-02-03T03:23:25.192Z,53938.69
2019-02-03T03:25:55.809Z,53928.10
2019-02-03T03:28:27.041Z,53962.77
2019-02-03T03:30:57.816Z,54007.07
2019-02-03T03:33:28.562Z,53964.70
2019-02-03T03:35:59.153Z,53943.51
2019-02-03T03:38:32.135Z,53912.69
2019-02-03T03:41:02.193Z,53973.36
2019-02-03T03:43:32.934Z,53958.92
2019-02-03T03:46:06.449Z,53978.18
2019-02-03T03:48:36.199Z,53960.84
2019-02-03T03:51:06.774Z,53927.14
2019-02-03T03:53:37.406Z,53905.95
2019-02-03T03:56:07.982Z,53925.21
2019-02-03T03:58:38.683Z,53911.73
2019-02-03T04:01:09.424Z,53916.54
2019-02-03T04:03:40.145Z,53910.77
2019-02-03T04:06:10.735Z,53879.95
2019-02-03T04:08:45.221Z,53895.36
2019-02-03T04:11:13.690Z,53843.35
2019-02-03T04:13:44.397Z,53857.80
2019-02-03T04:16:15.282Z,53895.36
2019-02-03T04:18:45.961Z,53904.02
2019-02-03T04:21:16.532Z,53869.35
2019-02-03T04:23:47.120Z,53848.17
2019-02-03T04:26:17.688Z,53837.57
2019-02-03T04:28:48.394Z,53833.72
2019-02-03T04:31:19.260Z,53831.80
2019-02-03T04:33:49.955Z,53846.24
2019-02-03T04:36:20.523Z,53795.20
2019-02-03T04:38:58.253Z,53822.16
2019-02-03T04:41:23.515Z,53783.65
2019-02-03T04:43:54.213Z,53775.94
2019-02-03T04:46:24.765Z,53752.83
2019-02-03T04:48:55.839Z,53711.42
2019-02-03T04:51:26.404Z,53769.20
2019-02-03T04:53:57.061Z,53681.57
2019-02-03T04:56:27.986Z,53669.05
2019-02-03T04:58:58.981Z,53675.79
2019-02-03T05:01:29.561Z,53631.50
2019-02-03T05:04:00.186Z,53614.16
2019-02-03T05:06:30.743Z,53597.79
2019-02-03T05:09:10.639Z,53606.46
2019-02-03T05:11:34.085Z,53535.20
2019-02-03T05:14:05.629Z,53489.95
2019-02-03T05:16:36.198Z,53477.43
2019-02-03T05:19:06.956Z,53451.43
2019-02-03T05:21:38.004Z,53426.39
2019-02-03T05:24:08.842Z,53404.25
2019-02-03T05:26:39.405Z,53419.65
2019-02-03T05:29:10.325Z,53390.77
2019-02-03T05:31:40.884Z,53325.29
2019-02-03T05:34:12.263Z,53326.25
2019-02-03T05:36:42.817Z,53311.81
2019-02-03T05:39:24.539Z,53270.41
2019-02-03T05:41:46.169Z,53268.48
2019-02-03T05:44:16.843Z,53247.30
2019-02-03T05:46:47.779Z,53229.00
2019-02-03T05:49:18.361Z,53202.05
2019-02-03T05:51:49.393Z,53184.71
2019-02-03T05:54:19.970Z,53168.35
2019-02-03T05:56:50.902Z,53123.09
2019-02-03T05:59:21.844Z,53128.87
2019-02-03T06:01:52.483Z,53061.48
2019-02-03T06:04:23.036Z,53065.33
2019-02-03T06:06:53.725Z,53053.77
2019-02-03T06:09:36.052Z,53018.15
2019-02-03T06:11:56.612Z,53015.26
2019-02-03T06:14:27.279Z,52975.79
2019-02-03T06:16:57.849Z,52948.83
2019-02-03T06:19:28.905Z,52919.95
2019-02-03T06:21:59.474Z,52903.58
2019-02-03T06:24:30.359Z,52894.91
2019-02-03T06:27:00.959Z,52916.10
2019-02-03T06:29:31.577Z,52877.59
2019-02-03T06:32:02.530Z,52840.04
2019-02-03T06:34:33.498Z,52826.56
2019-02-03T06:37:04.443Z,52841.96
2019-02-03T06:39:35.179Z,52817.89
2019-02-03T06:42:05.964Z,52797.68
2019-02-03T06:44:36.605Z,52803.46
2019-02-03T06:47:23.930Z,52819.82
2019-02-03T06:49:55.598Z,52815.01
2019-02-03T06:52:26.147Z,52775.54
2019-02-03T06:54:57.079Z,52771.69
2019-02-03T06:57:28.060Z,52807.31
2019-02-03T06:59:58.634Z,52754.36
2019-02-03T07:02:29.330Z,52784.20
2019-02-03T07:05:00.276Z,52789.02
2019-02-03T07:07:31.159Z,52791.90
2019-02-03T07:10:02.195Z,52751.47
2019-02-03T07:12:33.249Z,52748.58
2019-02-03T07:15:03.982Z,52761.10
2019-02-03T07:17:34.701Z,52747.62
2019-02-03T07:20:05.944Z,52739.92
2019-02-03T07:22:36.896Z,52703.34
2019-02-03T07:25:07.811Z,52720.66
2019-02-03T07:27:38.382Z,52748.58
2019-02-03T07:30:11.962Z,52721.62
2019-02-03T07:32:42.567Z,52697.56
2019-02-03T07:35:13.684Z,52676.38
2019-02-03T07:37:44.261Z,52684.08
2019-02-03T07:40:15.001Z,52678.30
2019-02-03T07:42:45.682Z,52629.21
2019-02-03T07:45:16.391Z,52614.77
2019-02-03T07:47:48.015Z,52659.05
2019-02-03T07:50:18.713Z,52627.29
2019-02-03T07:52:49.284Z,52594.55
2019-02-03T07:55:20.306Z,52609.95
2019-02-03T07:57:50.906Z,52626.32
2019-02-03T08:00:23.953Z,52578.19
2019-02-03T08:02:54.544Z,52578.19
2019-02-03T08:05:25.245Z,52590.70
2019-02-03T08:07:55.829Z,52585.89
2019-02-03T08:10:29.426Z,52539.68
2019-02-03T08:12:59.287Z,52554.12
2019-02-03T08:15:29.909Z,52552.20
2019-02-03T08:18:00.482Z,52559.90
2019-02-03T08:20:31.299Z,52580.11
2019-02-03T08:23:02.218Z,52580.11
2019-02-03T08:25:33.151Z,52535.83
2019-02-03T08:28:03.832Z,52523.32
2019-02-03T08:30:34.401Z,52497.32
2019-02-03T08:33:05.046Z,52512.73
2019-02-03T08:35:35.608Z,52492.51
2019-02-03T08:38:06.835Z,52438.61
2019-02-03T08:40:37.766Z,52463.63
2019-02-03T08:43:08.496Z,52428.02
2019-02-03T08:45:39.069Z,52424.16
2019-02-03T08:48:10.010Z,52417.43
2019-02-03T08:50:41.366Z,52418.39
2019-02-03T08:53:11.956Z,52393.36
2019-02-03T08:55:42.575Z,52384.70
2019-02-03T08:58:13.505Z,52348.12
2019-02-03T09:00:44.295Z,52308.65
2019-02-03T09:03:15.279Z,52311.54
2019-02-03T09:05:46.178Z,52315.39
2019-02-03T09:08:16.749Z,52277.85
2019-02-03T09:10:48.867Z,52310.58
2019-02-03T09:13:19.774Z,52285.55
2019-02-03T09:15:51.977Z,52281.70
2019-02-03T09:18:23.131Z,52245.12
2019-02-03T09:20:55.987Z,52248.98
2019-02-03T09:23:26.252Z,52268.23
2019-02-03T09:25:56.889Z,52281.70
2019-02-03T09:28:27.787Z,52268.23
2019-02-03T09:30:58.479Z,52246.09
2019-02-03T09:33:29.076Z,52226.84
2019-02-03T09:35:59.779Z,52230.69
2019-02-03T09:38:30.434Z,52238.39
2019-02-03T09:41:01.130Z,52262.45
2019-02-03T09:43:31.711Z,52230.69
2019-02-03T09:46:02.412Z,52222.99
2019-02-03T09:48:32.984Z,52245.12
2019-02-03T09:51:03.548Z,52225.88
2019-02-03T09:53:34.457Z,52248.98
2019-02-03T09:56:05.432Z,52216.25
2019-02-03T09:58:36.319Z,52242.24
2019-02-03T10:01:07.055Z,52214.32
2019-02-03T10:03:37.966Z,52230.69
2019-02-03T10:06:08.857Z,52241.27
2019-02-03T10:08:41.020Z,52227.80
2019-02-03T10:11:12.484Z,52202.77
2019-02-03T10:13:43.123Z,52202.77
2019-02-03T10:16:13.914Z,52196.04
2019-02-03T10:18:45.053Z,52175.82
2019-02-03T10:21:15.625Z,52184.48
2019-02-03T10:23:46.218Z,52156.57
2019-02-03T10:26:16.815Z,52158.50
2019-02-03T10:28:47.500Z,52152.72
2019-02-03T10:31:18.376Z,52162.35
2019-02-03T10:33:49.633Z,52128.66
2019-02-03T10:36:20.372Z,52127.70
2019-02-03T10:38:53.248Z,52067.06
2019-02-03T10:41:24.348Z,52062.24
2019-02-03T10:43:56.462Z,52036.25
2019-02-03T10:46:27.945Z,52081.49
2019-02-03T10:48:58.502Z,52094.01
2019-02-03T10:51:29.080Z,52085.34
2019-02-03T10:53:59.812Z,52010.27
2019-02-03T10:56:30.676Z,52042.03
2019-02-03T10:59:01.289Z,52044.92
2019-02-03T11:01:32.222Z,52004.49
2019-02-03T11:04:02.990Z,51994.87
2019-02-03T11:06:33.567Z,52011.23
2019-02-03T11:09:08.843Z,52003.53
2019-02-03T11:11:39.785Z,51993.91
2019-02-03T11:14:11.221Z,52005.46
2019-02-03T11:16:42.161Z,51990.06
2019-02-03T11:19:13.037Z,52005.46
2019-02-03T11:21:44.395Z,52068.98
2019-02-03T11:24:15.660Z,52020.86
2019-02-03T11:26:46.302Z,52067.06
2019-02-03T11:29:17.049Z,52037.22
2019-02-03T11:31:47.611Z,52051.66
2019-02-03T11:34:18.311Z,52046.84
2019-02-03T11:36:49.165Z,52053.58
2019-02-03T11:39:20.195Z,52122.88
2019-02-03T11:41:51.109Z,52110.37
2019-02-03T11:44:22.223Z,52145.02
2019-02-03T11:46:52.842Z,52053.58
2019-02-03T11:49:23.783Z,52119.99
2019-02-03T11:51:55.533Z,52091.12
2019-02-03T11:54:26.123Z,52094.97
2019-02-03T11:56:57.221Z,52132.51
2019-02-03T11:59:28.123Z,52101.71
2019-02-03T12:01:59.268Z,52101.71
2019-02-03T12:04:29.823Z,52065.13
2019-02-03T12:07:00.537Z,52094.97
2019-02-03T12:09:31.265Z,52051.66
2019-02-03T12:12:01.986Z,52018.93
2019-02-03T12:14:32.914Z,52055.50
2019-02-03T12:17:03.676Z,52059.36
2019-02-03T12:19:34.244Z,52026.63
2019-02-03T12:22:05.218Z,52038.18
2019-02-03T12:24:35.774Z,52042.03
2019-02-03T12:27:06.943Z,52046.84
2019-02-03T12:29:37.896Z,52017.01
2019-02-03T12:32:08.668Z,51991.98
2019-02-03T12:34:39.613Z,51994.87
2019-02-03T12:37:10.290Z,51975.62
2019-02-03T12:39:41.254Z,51992.95
2019-02-03T12:42:13.545Z,52044.92
2019-02-03T12:44:44.316Z,51981.39
2019-02-03T12:47:15.005Z,51997.76
2019-02-03T12:49:46.335Z,51983.32
2019-02-03T12:52:17.882Z,51994.87
2019-02-03T12:54:48.494Z,51998.72
2019-02-03T12:57:19.235Z,51960.22
2019-02-03T12:59:49.828Z,51944.82
2019-02-03T13:02:20.541Z,51957.33
2019-02-03T13:04:51.114Z,51962.14
2019-02-03T13:07:21.674Z,51912.09
2019-02-03T13:09:52.440Z,51880.34
2019-02-03T13:12:26.500Z,51896.70
2019-02-03T13:14:55.674Z,51905.36
2019-02-03T13:17:26.380Z,51910.17
2019-02-03T13:19:56.954Z,51903.43
2019-02-03T13:22:28.212Z,51900.55
2019-02-03T13:24:58.793Z,51887.07
2019-02-03T13:27:29.776Z,51827.40
2019-02-03T13:30:00.370Z,51906.32
2019-02-03T13:32:31.072Z,51847.61
2019-02-03T13:35:02.028Z,51845.69
2019-02-03T13:37:32.669Z,51887.07
2019-02-03T13:40:03.521Z,51861.09
2019-02-03T13:42:37.313Z,51865.90
2019-02-03T13:45:20.286Z,51867.82
2019-02-03T13:47:42.083Z,51819.70
2019-02-03T13:50:19.301Z,51865.90
2019-02-03T13:52:50.020Z,51842.80
2019-02-03T13:55:20.701Z,51815.85
2019-02-03T13:57:51.309Z,51861.09
2019-02-03T14:00:34.894Z,51863.97
2019-02-03T14:03:05.658Z,51894.77
2019-02-03T14:05:36.200Z,51865.90
2019-02-03T14:08:07.072Z,51900.55
2019-02-03T14:10:38.021Z,51910.17
2019-02-03T14:13:09.716Z,51923.64
2019-02-03T14:15:40.948Z,51893.81
2019-02-03T14:18:11.522Z,51863.97
2019-02-03T14:20:42.613Z,51873.60
2019-02-03T14:23:13.897Z,51897.66
2019-02-03T14:25:44.643Z,51907.28
2019-02-03T14:28:15.275Z,51890.92
2019-02-03T14:30:47.207Z,51906.32
2019-02-03T14:33:18.000Z,51884.18
2019-02-03T14:35:49.340Z,51910.17
2019-02-03T14:38:20.054Z,51893.81
2019-02-03T14:40:50.630Z,51877.45
2019-02-03T14:43:21.211Z,51884.18
2019-02-03T14:45:52.606Z,51895.73
2019-02-03T14:48:23.853Z,51896.70
2019-02-03T14:50:54.434Z,51895.73
2019-02-03T14:53:25.583Z,51904.39
2019-02-03T14:55:56.196Z,51942.89
2019-02-03T14:58:27.084Z,51965.03
2019-02-03T15:00:57.969Z,52005.46
2019-02-03T15:03:28.993Z,51939.04
2019-02-03T15:05:59.965Z,51991.02
2019-02-03T15:08:30.943Z,51963.11
2019-02-03T15:11:01.632Z,51991.02
2019-02-03T15:13:32.233Z,52006.42
2019-02-03T15:16:02.879Z,51994.87
2019-02-03T15:18:33.442Z,52021.82
2019-02-03T15:21:04.155Z,51993.91
2019-02-03T15:23:35.369Z,52006.42
2019-02-03T15:26:05.895Z,51989.09
2019-02-03T15:28:37.039Z,52013.16
2019-02-03T15:31:07.930Z,52014.12
2019-02-03T15:33:38.520Z,51996.79
2019-02-03T15:36:09.827Z,51977.54
2019-02-03T15:38:40.529Z,51979.47
2019-02-03T15:41:11.105Z,51996.79
2019-02-03T15:43:41.841Z,51976.58
2019-02-03T15:46:13.479Z,51974.66
2019-02-03T15:48:44.739Z,51985.24
2019-02-03T15:51:17.931Z,51953.48
2019-02-03T15:53:47.581Z,51978.51
2019-02-03T15:56:18.737Z,51962.14
2019-02-03T15:58:49.494Z,51971.77
2019-02-03T16:01:20.447Z,51940.97
2019-02-03T16:03:52.040Z,51979.47
2019-02-03T16:06:22.597Z,51959.26
2019-02-03T16:08:53.301Z,51907.28
2019-02-03T16:11:24.174Z,51986.21
2019-02-03T16:13:55.171Z,51962.14
2019-02-03T16:16:25.721Z,51984.28
2019-02-03T16:18:56.752Z,51991.98
2019-02-03T16:21:27.645Z,51994.87
2019-02-03T16:23:58.338Z,52034.33
2019-02-03T16:26:29.102Z,51978.51
2019-02-03T16:29:00.309Z,52018.93
2019-02-03T16:31:30.859Z,52013.16
2019-02-03T16:34:01.858Z,51983.32
2019-02-03T16:36:32.462Z,52008.34
2019-02-03T16:39:04.130Z,51998.72
2019-02-03T16:41:35.579Z,52016.04
2019-02-03T16:44:06.811Z,52020.86
2019-02-03T16:46:37.375Z,52055.50
2019-02-03T16:49:08.113Z,52041.07
2019-02-03T16:51:39.200Z,52037.22
2019-02-03T16:54:09.890Z,52041.07
2019-02-03T16:56:40.644Z,52011.23
2019-02-03T16:59:11.269Z,52059.36
2019-02-03T17:01:42.293Z,52071.87
2019-02-03T17:04:13.320Z,52102.67
2019-02-03T17:06:43.962Z,52083.42
2019-02-03T17:09:14.559Z,52072.83
2019-02-03T17:11:45.361Z,52109.41
2019-02-03T17:14:15.893Z,52108.45
2019-02-03T17:16:46.609Z,52069.95
2019-02-03T17:19:17.518Z,52131.54
2019-02-03T17:21:48.267Z,52113.26
2019-02-03T17:24:18.852Z,52118.07
2019-02-03T17:26:49.525Z,52063.21
2019-02-03T17:29:20.814Z,52104.59
2019-02-03T17:31:51.427Z,52071.87
2019-02-03T17:34:22.323Z,52096.89
2019-02-03T17:36:53.271Z,52097.86
2019-02-03T17:39:23.833Z,52109.41
2019-02-03T17:41:54.581Z,52068.02
2019-02-03T17:44:25.157Z,52091.12
2019-02-03T17:46:56.013Z,52061.28
2019-02-03T17:49:26.903Z,52046.84
2019-02-03T17:51:57.588Z,52042.03
2019-02-03T17:54:28.461Z,52016.04
2019-02-03T17:56:59.042Z,52030.48
2019-02-03T17:59:30.070Z,52059.36
2019-02-03T18:02:00.621Z,52034.33
2019-02-03T18:04:31.339Z,52046.84
2019-02-03T18:07:02.243Z,52043.96
2019-02-03T18:09:32.926Z,51994.87
2019-02-03T18:12:04.090Z,52033.37
2019-02-03T18:14:34.841Z,52014.12
2019-02-03T18:17:05.784Z,52049.73
2019-02-03T18:19:36.456Z,52003.53
2019-02-03T18:22:07.369Z,52017.97
2019-02-03T18:24:37.954Z,51973.70
2019-02-03T18:27:08.663Z,51945.78
2019-02-03T18:29:39.245Z,51931.34
2019-02-03T18:32:09.940Z,51932.31
2019-02-03T18:34:40.497Z,51898.62
2019-02-03T18:37:11.243Z,51927.50
2019-02-03T18:39:41.840Z,51952.52
2019-02-03T18:42:12.473Z,51929.42
2019-02-03T18:44:43.399Z,51923.64
2019-02-03T18:47:14.695Z,51938.08
2019-02-03T18:49:45.258Z,51985.24
2019-02-03T18:52:16.340Z,51960.22
2019-02-03T18:54:46.911Z,51960.22
2019-02-03T18:57:17.564Z,51983.32
2019-02-03T18:59:48.432Z,51936.16
2019-02-03T19:02:19.129Z,51946.75
2019-02-03T19:04:49.725Z,51963.11
2019-02-03T19:07:20.287Z,51935.20
2019-02-03T19:09:51.204Z,51962.14
2019-02-03T19:12:22.625Z,51966.00
2019-02-03T19:14:53.580Z,51973.70
2019-02-03T19:17:24.449Z,51953.48
2019-02-03T19:19:55.434Z,51917.87
2019-02-03T19:22:26.012Z,51940.01
2019-02-03T19:24:56.578Z,51894.77
2019-02-03T19:27:27.181Z,51929.42
2019-02-03T19:29:58.570Z,51939.04
2019-02-03T19:32:29.512Z,51931.34
2019-02-03T19:35:00.220Z,51928.46
2019-02-03T19:37:31.076Z,51941.93
2019-02-03T19:40:01.815Z,51907.28
2019-02-03T19:42:32.418Z,51918.83
2019-02-03T19:45:03.292Z,51939.04
2019-02-03T19:47:33.835Z,51919.79
2019-02-03T19:50:05.904Z,51924.61
2019-02-03T19:52:36.469Z,51958.30
2019-02-03T19:55:08.794Z,51940.97
2019-02-03T19:57:39.662Z,51976.58
2019-02-03T20:00:18.777Z,51937.12
2019-02-03T20:02:49.345Z,51954.45
2019-02-03T20:05:19.917Z,51939.04
2019-02-03T20:07:50.890Z,51958.30
2019-02-03T20:10:22.609Z,51945.78
2019-02-03T20:12:53.643Z,51977.54
2019-02-03T20:15:24.468Z,51999.68
2019-02-03T20:17:57.883Z,51952.52
2019-02-03T20:20:31.093Z,51973.70
2019-02-03T20:23:01.817Z,51995.83
2019-02-03T20:25:32.787Z,51966.96
2019-02-03T20:28:03.516Z,51974.66
2019-02-03T20:30:38.559Z,51979.47
2019-02-03T20:33:07.481Z,52006.42
2019-02-03T20:35:38.211Z,51998.72
2019-02-03T20:38:10.432Z,52026.63
2019-02-03T20:40:43.619Z,52017.97
2019-02-03T20:43:14.636Z,52025.67
2019-02-03T20:45:49.438Z,52006.42
2019-02-03T20:48:18.188Z,52000.64
2019-02-03T20:50:49.155Z,51982.36
2019-02-03T20:53:20.039Z,52035.29
2019-02-03T20:55:51.518Z,52048.77
2019-02-03T20:58:22.159Z,52048.77
2019-02-03T21:00:53.843Z,52067.06
2019-02-03T21:03:24.923Z,52023.74
2019-02-03T21:05:55.727Z,52022.78
2019-02-03T21:08:27.236Z,52040.11
2019-02-03T21:10:58.826Z,52083.42
2019-02-03T21:13:29.617Z,52026.63
2019-02-03T21:16:00.450Z,52050.70
2019-02-03T21:18:31.235Z,52057.43
2019-02-03T21:21:02.240Z,52025.67
2019-02-03T21:23:32.964Z,52050.70
2019-02-03T21:26:15.577Z,52013.16
2019-02-03T21:28:36.681Z,52075.72
2019-02-03T21:31:08.838Z,52062.24
2019-02-03T21:33:39.515Z,52037.22
2019-02-03T21:36:10.296Z,52068.98
2019-02-03T21:38:41.029Z,52053.58
2019-02-03T21:41:11.713Z,52118.07
2019-02-03T21:43:42.655Z,52083.42
2019-02-03T21:46:13.347Z,52102.67
2019-02-03T21:48:43.947Z,52110.37
2019-02-03T21:51:15.469Z,52129.62
2019-02-03T21:53:46.540Z,52091.12
2019-02-03T21:56:17.208Z,52106.52
2019-02-03T21:58:47.843Z,52114.22
2019-02-03T22:01:18.535Z,52102.67
2019-02-03T22:03:49.212Z,52147.91
2019-02-03T22:06:20.241Z,52131.54
2019-02-03T22:08:50.990Z,52121.92
2019-02-03T22:11:21.642Z,52106.52
2019-02-03T22:13:52.361Z,52116.14
2019-02-03T22:16:23.024Z,52134.43
2019-02-03T22:18:53.777Z,52129.62
2019-02-03T22:21:24.395Z,52110.37
2019-02-03T22:23:55.663Z,52126.73
2019-02-03T22:26:27.004Z,52133.47
2019-02-03T22:28:57.950Z,52141.17
2019-02-03T22:31:28.521Z,52121.92
2019-02-03T22:33:59.081Z,52153.68
2019-02-03T22:36:30.118Z,52170.05
2019-02-03T22:39:01.043Z,52123.84
2019-02-03T22:41:31.752Z,52154.64
2019-02-03T22:44:02.296Z,52171.01
2019-02-03T22:46:32.995Z,52182.56
2019-02-03T22:49:03.692Z,52141.17
2019-02-03T22:51:34.711Z,52154.64
2019-02-03T22:54:05.285Z,52160.42
2019-02-03T22:56:36.348Z,52183.52
2019-02-03T22:59:07.261Z,52186.41
2019-02-03T23:01:38.991Z,52204.70
2019-02-03T23:04:20.395Z,52178.71
2019-02-03T23:06:51.046Z,52196.04
2019-02-03T23:09:34.748Z,52195.07
2019-02-03T23:12:08.389Z,52197.00
2019-02-03T23:14:39.019Z,52200.85
2019-02-03T23:17:09.888Z,52215.29
2019-02-03T23:19:42.188Z,52195.07
2019-02-03T23:22:12.888Z,52222.02
2019-02-03T23:24:43.457Z,52206.63
2019-02-03T23:27:14.874Z,52221.06
2019-02-03T23:29:45.754Z,52243.20
2019-02-03T23:32:16.446Z,52235.50
2019-02-03T23:34:46.999Z,52244.16
2019-02-03T23:37:17.693Z,52200.85
2019-02-03T23:39:48.542Z,52222.02
2019-02-03T23:42:19.218Z,52229.72
2019-02-03T23:44:50.243Z,52256.68
2019-02-03T23:47:21.235Z,52217.21
2019-02-03T23:49:52.188Z,52253.79
2019-02-03T23:52:22.925Z,52241.27
2019-02-03T23:54:53.862Z,52237.43
2019-02-03T23:57:24.898Z,52224.91
2019-02-03T23:59:55.844Z,52270.15
